createdAt,value
2023-03-05T00:01:38.196Z,102420.56
2023-03-05T00:04:08.162Z,102414.59
2023-03-05T00:06:34.639Z,102418.78
2023-03-05T00:09:01.975Z,102412.03
2023-03-05T00:11:30.551Z,102405.13
2023-03-05T00:13:58.050Z,102410.28
2023-03-05T00:16:26.853Z,102399.19
2023-03-05T00:18:54.875Z,102394.94
2023-03-05T00:21:27.515Z,102394.94
2023-03-05T00:23:55.229Z,102390.75
2023-03-05T00:26:24.598Z,102392.56
2023-03-05T00:28:52.451Z,102384.84
2023-03-05T00:31:22.612Z,102390.84
2023-03-05T00:33:54.395Z,102389.56
2023-03-05T00:36:21.274Z,102378.13
2023-03-05T00:38:48.397Z,102388.81
2023-03-05T00:41:14.980Z,102390.13
2023-03-05T00:43:41.429Z,102384.34
2023-03-05T00:46:08.134Z,102377.84
2023-03-05T00:48:34.743Z,102377.75
2023-03-05T00:51:01.254Z,102384.63
2023-03-05T00:53:27.728Z,102378.56
2023-03-05T00:55:54.272Z,102376.81
2023-03-05T00:58:20.736Z,102380.13
2023-03-05T01:00:50.445Z,102372.44
2023-03-05T01:03:18.099Z,102362.25
2023-03-05T01:05:44.926Z,102371.69
2023-03-05T01:08:11.656Z,102363.34
2023-03-05T01:10:38.113Z,102365.81
2023-03-05T01:13:04.549Z,102361.59
2023-03-05T01:15:30.939Z,102360.78
2023-03-05T01:17:57.373Z,102352.16
2023-03-05T01:20:23.995Z,102353.78
2023-03-05T01:22:50.427Z,102347.84
2023-03-05T01:25:17.742Z,102341.88
2023-03-05T01:27:44.407Z,102347.84
2023-03-05T01:30:13.299Z,102340.94
2023-03-05T01:32:40.290Z,102335.91
2023-03-05T01:35:07.281Z,102326.47
2023-03-05T01:37:33.782Z,102329.03
2023-03-05T01:40:00.188Z,102321.53
2023-03-05T01:42:26.645Z,102320.72
2023-03-05T01:45:02.813Z,102320.72
2023-03-05T01:47:29.628Z,102315.69
2023-03-05T01:49:56.813Z,102318.44
2023-03-05T01:52:26.664Z,102309.97
2023-03-05T01:55:08.056Z,102302.28
2023-03-05T01:57:46.041Z,102304.13
2023-03-05T02:00:22.434Z,102294.81
2023-03-05T02:02:50.490Z,102293.97
2023-03-05T02:05:26.996Z,102293.13
2023-03-05T02:07:55.587Z,102278.66
2023-03-05T02:10:25.754Z,102279.50
2023-03-05T02:12:54.545Z,102269.22
2023-03-05T02:15:21.110Z,102271.69
2023-03-05T02:17:47.798Z,102264.81
2023-03-05T02:20:19.757Z,102263.75
2023-03-05T02:22:46.551Z,102258.63
2023-03-05T02:25:25.240Z,102251.97
2023-03-05T02:27:56.986Z,102243.34
2023-03-05T02:30:23.796Z,102251.97
2023-03-05T02:32:50.578Z,102249.41
2023-03-05T02:35:17.181Z,102243.53
2023-03-05T02:37:43.887Z,102244.53
2023-03-05T02:40:11.952Z,102240.31
2023-03-05T02:42:38.369Z,102234.47
2023-03-05T02:45:05.415Z,102240.50
2023-03-05T02:47:32.053Z,102234.66
2023-03-05T02:49:59.029Z,102233.03
2023-03-05T02:52:25.696Z,102227.16
2023-03-05T02:54:52.931Z,102224.59
2023-03-05T02:57:19.696Z,102219.34
2023-03-05T02:59:47.266Z,102221.81
2023-03-05T03:02:14.322Z,102203.94
2023-03-05T03:04:40.825Z,102209.72
2023-03-05T03:07:07.255Z,102211.25
2023-03-05T03:09:35.933Z,102199.25
2023-03-05T03:12:03.339Z,102194.09
2023-03-05T03:14:39.424Z,102184.03
2023-03-05T03:17:10.945Z,102184.03
2023-03-05T03:19:38.097Z,102181.69
2023-03-05T03:22:04.845Z,102186.09
2023-03-05T03:24:32.710Z,102175.00
2023-03-05T03:26:59.196Z,102179.41
2023-03-05T03:29:25.649Z,102178.66
2023-03-05T03:31:52.636Z,102176.31
2023-03-05T03:34:19.827Z,102179.91
2023-03-05T03:36:48.963Z,102173.88
2023-03-05T03:39:15.748Z,102173.00
2023-03-05T03:41:48.041Z,102168.81
2023-03-05T03:44:17.914Z,102157.63
2023-03-05T03:46:46.295Z,102159.38
2023-03-05T03:49:20.832Z,102155.16
2023-03-05T03:51:48.054Z,102149.19
2023-03-05T03:54:16.490Z,102149.19
2023-03-05T03:56:43.236Z,102147.44
2023-03-05T03:59:10.529Z,102156.81
2023-03-05T04:01:37.267Z,102150.84
2023-03-05T04:04:05.076Z,102149.09
2023-03-05T04:06:32.673Z,102149.91
2023-03-05T04:08:59.288Z,102145.63
2023-03-05T04:11:26.080Z,102139.56
2023-03-05T04:13:52.573Z,102136.16
2023-03-05T04:16:19.397Z,102131.13
2023-03-05T04:18:46.100Z,102134.00
2023-03-05T04:21:12.796Z,102132.25
2023-03-05T04:23:39.964Z,102131.44
2023-03-05T04:26:06.771Z,102129.91
2023-03-05T04:28:33.394Z,102130.72
2023-03-05T04:31:00.038Z,102122.19
2023-03-05T04:33:26.503Z,102123.03
2023-03-05T04:35:53.127Z,102118.78
2023-03-05T04:38:19.640Z,102120.66
2023-03-05T04:40:46.599Z,102117.97
2023-03-05T04:43:13.041Z,102107.72
2023-03-05T04:45:40.749Z,102116.41
2023-03-05T04:48:08.203Z,102104.72
2023-03-05T04:50:34.923Z,102103.97
2023-03-05T04:53:01.690Z,102093.28
2023-03-05T04:55:28.221Z,102102.13
2023-03-05T04:57:54.633Z,102092.16
2023-03-05T05:00:21.708Z,102098.41
2023-03-05T05:02:50.129Z,102097.69
2023-03-05T05:05:21.595Z,102092.66
2023-03-05T05:07:48.105Z,102092.84
2023-03-05T05:10:15.164Z,102095.31
2023-03-05T05:12:42.046Z,102091.13
2023-03-05T05:15:09.199Z,102090.09
2023-03-05T05:17:36.198Z,102084.94
2023-03-05T05:20:06.619Z,102080.00
2023-03-05T05:22:34.034Z,102074.78
2023-03-05T05:25:00.849Z,102078.19
2023-03-05T05:27:27.342Z,102075.72
2023-03-05T05:29:53.941Z,102069.75
2023-03-05T05:32:22.448Z,102071.59
2023-03-05T05:34:49.577Z,102066.56
2023-03-05T05:37:16.117Z,102068.50
2023-03-05T05:39:42.558Z,102061.72
2023-03-05T05:42:09.108Z,102069.41
2023-03-05T05:44:35.545Z,102069.53
2023-03-05T05:47:02.069Z,102063.59
2023-03-05T05:49:28.631Z,102059.34
2023-03-05T05:51:55.073Z,102061.81
2023-03-05T05:54:21.509Z,102059.06
2023-03-05T05:56:47.941Z,102055.50
2023-03-05T05:59:14.403Z,102054.56
2023-03-05T06:01:40.916Z,102060.34
2023-03-05T06:04:07.455Z,102051.50
2023-03-05T06:06:35.012Z,102044.53
2023-03-05T06:09:02.121Z,102046.19
2023-03-05T06:11:29.020Z,102047.09
2023-03-05T06:13:55.530Z,102044.75
2023-03-05T06:16:24.084Z,102054.16
2023-03-05T06:18:51.669Z,102048.22
2023-03-05T06:21:20.107Z,102041.44
2023-03-05T06:23:47.686Z,102043.28
2023-03-05T06:26:17.505Z,102048.31
2023-03-05T06:28:44.357Z,102053.44
2023-03-05T06:31:13.633Z,102045.75
2023-03-05T06:33:41.123Z,102043.09
2023-03-05T06:36:10.090Z,102041.34
2023-03-05T06:38:36.901Z,102043.09
2023-03-05T06:41:09.348Z,102044.75
2023-03-05T06:43:41.500Z,102040.53
2023-03-05T06:46:12.127Z,102049.03
2023-03-05T06:48:39.310Z,102049.88
2023-03-05T06:51:12.213Z,102049.88
2023-03-05T06:53:38.666Z,102043.81
2023-03-05T06:56:05.669Z,102047.09
2023-03-05T06:58:32.112Z,102054.69
2023-03-05T07:00:58.571Z,102038.19
2023-03-05T07:03:25.050Z,102037.06
2023-03-05T07:05:51.551Z,102036.94
2023-03-05T07:08:17.985Z,102040.06
2023-03-05T07:10:44.590Z,102031.84
2023-03-05T07:13:11.138Z,102043.34
2023-03-05T07:15:39.836Z,102040.38
2023-03-05T07:18:07.040Z,102034.63
2023-03-05T07:20:37.052Z,102027.84
2023-03-05T07:23:04.245Z,102030.22
2023-03-05T07:25:32.141Z,102029.88
2023-03-05T07:27:58.738Z,102032.25
2023-03-05T07:30:25.245Z,102029.69
2023-03-05T07:32:51.694Z,102034.72
2023-03-05T07:35:18.334Z,102030.41
2023-03-05T07:37:44.860Z,102038.94
2023-03-05T07:40:11.752Z,102030.91
2023-03-05T07:42:38.271Z,102025.69
2023-03-05T07:45:05.227Z,102037.25
2023-03-05T07:47:31.718Z,102032.03
2023-03-05T07:49:58.360Z,102030.78
2023-03-05T07:52:24.908Z,102037.25
2023-03-05T07:54:52.474Z,102026.16
2023-03-05T07:57:18.907Z,102034.69
2023-03-05T07:59:45.398Z,102018.94
2023-03-05T08:02:13.516Z,102024.38
2023-03-05T08:04:42.172Z,102014.69
2023-03-05T08:07:08.789Z,102013.56
2023-03-05T08:09:35.190Z,102013.03
2023-03-05T08:12:01.688Z,102011.25
2023-03-05T08:14:28.219Z,102002.75
2023-03-05T08:16:54.742Z,102010.00
2023-03-05T08:19:21.374Z,102008.88
2023-03-05T08:21:47.890Z,101994.47
2023-03-05T08:24:14.766Z,102006.06
2023-03-05T08:26:41.540Z,102003.44
2023-03-05T08:29:09.833Z,102001.94
2023-03-05T08:31:37.065Z,101999.53
2023-03-05T08:34:04.925Z,101998.19
2023-03-05T08:36:32.284Z,101995.19
2023-03-05T08:38:59.670Z,101993.56
2023-03-05T08:41:26.209Z,101987.16
2023-03-05T08:43:52.675Z,101979.88
2023-03-05T08:46:19.989Z,101985.28
2023-03-05T08:48:46.486Z,101969.97
2023-03-05T08:51:15.658Z,101973.56
2023-03-05T08:53:42.634Z,101970.53
2023-03-05T08:56:09.597Z,101965.16
2023-03-05T08:58:36.391Z,101970.19
2023-03-05T09:01:03.218Z,101966.31
2023-03-05T09:03:29.690Z,101959.78
2023-03-05T09:06:04.602Z,101963.97
2023-03-05T09:08:31.071Z,101969.00
2023-03-05T09:10:57.825Z,101969.81
2023-03-05T09:13:24.671Z,101965.81
2023-03-05T09:15:55.991Z,101969.31
2023-03-05T09:18:22.642Z,101964.81
2023-03-05T09:20:49.119Z,101968.94
2023-03-05T09:23:15.547Z,101966.81
2023-03-05T09:25:42.014Z,101963.56
2023-03-05T09:28:09.268Z,101955.97
2023-03-05T09:30:36.216Z,101968.47
2023-03-05T09:33:03.911Z,101963.78
2023-03-05T09:35:30.711Z,101961.44
2023-03-05T09:37:57.205Z,101950.69
2023-03-05T09:40:25.917Z,101947.94
2023-03-05T09:43:05.818Z,101952.38
2023-03-05T09:46:05.818Z,101948.28
2023-03-05T09:48:52.549Z,101953.06
2023-03-05T09:51:25.682Z,101951.66
2023-03-05T09:54:03.227Z,101946.47
2023-03-05T09:56:34.815Z,101947.78
2023-03-05T09:59:14.664Z,101946.59
2023-03-05T10:01:44.640Z,101937.69
2023-03-05T10:04:16.197Z,101941.59
2023-03-05T10:06:48.687Z,101930.00
2023-03-05T10:09:46.231Z,101930.13
2023-03-05T10:12:27.846Z,101922.81
2023-03-05T10:14:55.494Z,101925.91
2023-03-05T10:17:43.725Z,101919.56
2023-03-05T10:20:25.923Z,101916.28
2023-03-05T10:22:58.611Z,101915.75
2023-03-05T10:25:53.178Z,101915.13
2023-03-05T10:28:28.053Z,101907.94
2023-03-05T10:31:21.893Z,101911.22
2023-03-05T10:33:54.394Z,101905.75
2023-03-05T10:36:46.865Z,101903.09
2023-03-05T10:39:39.948Z,101907.31
2023-03-05T10:42:21.640Z,101888.03
2023-03-05T10:44:53.054Z,101890.31
2023-03-05T10:47:22.418Z,101890.47
2023-03-05T10:49:52.321Z,101884.91
2023-03-05T10:52:40.522Z,101886.00
2023-03-05T10:55:19.286Z,101874.63
2023-03-05T10:57:45.788Z,101871.47
2023-03-05T11:00:24.983Z,101871.06
2023-03-05T11:03:10.168Z,101866.59
2023-03-05T11:05:50.445Z,101861.00
2023-03-05T11:08:19.720Z,101866.31
2023-03-05T11:10:46.156Z,101858.56
2023-03-05T11:13:27.368Z,101854.25
2023-03-05T11:16:02.302Z,101849.88
2023-03-05T11:18:34.252Z,101839.13
2023-03-05T11:21:18.536Z,101839.00
2023-03-05T11:24:03.058Z,101841.44
2023-03-05T11:26:29.496Z,101835.28
2023-03-05T11:29:01.005Z,101826.69
2023-03-05T11:31:30.302Z,101826.16
2023-03-05T11:34:00.378Z,101820.31
2023-03-05T11:36:37.143Z,101821.53
2023-03-05T11:39:07.361Z,101815.03
2023-03-05T11:43:17.087Z,101803.72
2023-03-05T11:45:45.283Z,101797.53
2023-03-05T11:48:20.848Z,101799.00
2023-03-05T11:50:55.415Z,101800.63
2023-03-05T11:53:25.338Z,101800.03
2023-03-05T11:55:54.840Z,101791.34
2023-03-05T11:58:33.010Z,101786.81
2023-03-05T12:01:03.386Z,101791.94
2023-03-05T12:03:36.451Z,101784.28
2023-03-05T12:06:16.416Z,101778.38
2023-03-05T12:08:48.169Z,101775.50
2023-03-05T12:11:26.400Z,101773.81
2023-03-05T12:14:04.787Z,101767.22
2023-03-05T12:16:41.539Z,101765.28
2023-03-05T12:19:37.425Z,101757.69
2023-03-05T12:22:05.431Z,101754.81
2023-03-05T12:24:31.787Z,101755.88
2023-03-05T12:27:04.368Z,101740.88
2023-03-05T12:29:54.345Z,101744.13
2023-03-05T12:32:31.407Z,101733.19
2023-03-05T12:35:05.677Z,101732.44
2023-03-05T12:37:32.016Z,101728.75
2023-03-05T12:40:22.902Z,101714.84
2023-03-05T12:42:56.756Z,101716.72
2023-03-05T12:45:29.631Z,101708.03
2023-03-05T12:47:55.984Z,101703.88
2023-03-05T12:50:28.456Z,101702.28
2023-03-05T12:53:04.549Z,101695.16
2023-03-05T12:55:36.130Z,101690.22
2023-03-05T12:58:14.944Z,101690.31
2023-03-05T13:00:46.344Z,101682.69
2023-03-05T13:03:22.449Z,101681.41
2023-03-05T13:05:52.619Z,101680.06
2023-03-05T13:08:26.582Z,101669.19
2023-03-05T13:10:56.919Z,101667.13
2023-03-05T13:13:26.491Z,101666.28
2023-03-05T13:15:53.373Z,101660.16
2023-03-05T13:18:31.383Z,101649.81
2023-03-05T13:21:06.841Z,101645.59
2023-03-05T13:23:35.067Z,101648.44
2023-03-05T13:26:18.663Z,101644.94
2023-03-05T13:29:05.344Z,101643.66
2023-03-05T13:31:33.766Z,101631.31
2023-03-05T13:34:10.877Z,101627.50
2023-03-05T13:36:38.480Z,101619.59
2023-03-05T13:39:06.688Z,101625.00
2023-03-05T13:41:33.442Z,101615.63
2023-03-05T13:44:02.410Z,101621.91
2023-03-05T13:46:39.093Z,101611.28
2023-03-05T13:49:29.969Z,101607.97
2023-03-05T13:51:57.866Z,101615.59
2023-03-05T13:54:26.155Z,101607.16
2023-03-05T13:57:08.463Z,101599.97
2023-03-05T13:59:39.080Z,101605.28
2023-03-05T14:02:33.483Z,101596.88
2023-03-05T14:05:00.440Z,101596.22
2023-03-05T14:07:39.701Z,101594.38
2023-03-05T14:10:30.856Z,101595.19
2023-03-05T14:12:58.698Z,101595.38
2023-03-05T14:15:33.863Z,101574.84
2023-03-05T14:18:18.410Z,101577.72
2023-03-05T14:21:03.061Z,101575.03
2023-03-05T14:23:32.603Z,101576.41
2023-03-05T14:26:22.943Z,101574.84
2023-03-05T14:29:15.386Z,101564.13
2023-03-05T14:31:51.746Z,101567.53
2023-03-05T14:34:40.002Z,101566.47
2023-03-05T14:37:20.363Z,101565.41
2023-03-05T14:40:05.357Z,101564.50
2023-03-05T14:42:33.257Z,101558.09
2023-03-05T14:45:21.388Z,101551.88
2023-03-05T14:47:49.592Z,101545.47
2023-03-05T14:50:18.576Z,101549.44
2023-03-05T14:52:47.055Z,101541.59
2023-03-05T14:55:18.211Z,101535.34
2023-03-05T14:57:45.471Z,101534.94
2023-03-05T15:00:17.381Z,101534.41
2023-03-05T15:02:44.129Z,101527.47
2023-03-05T15:05:10.615Z,101522.59
2023-03-05T15:07:37.846Z,101516.22
2023-03-05T15:10:05.036Z,101521.66
2023-03-05T15:12:31.682Z,101511.47
2023-03-05T15:14:58.106Z,101508.19
2023-03-05T15:17:36.748Z,101504.25
2023-03-05T15:20:10.294Z,101503.88
2023-03-05T15:22:37.372Z,101496.53
2023-03-05T15:25:05.453Z,101492.44
2023-03-05T15:27:32.014Z,101493.81
2023-03-05T15:29:59.586Z,101488.63
2023-03-05T15:32:28.004Z,101481.56
2023-03-05T15:34:55.502Z,101487.28
2023-03-05T15:37:22.882Z,101486.34
2023-03-05T15:39:49.609Z,101475.34
2023-03-05T15:42:16.056Z,101477.94
2023-03-05T15:44:42.481Z,101473.56
2023-03-05T15:47:09.139Z,101467.59
2023-03-05T15:49:35.589Z,101468.69
2023-03-05T15:52:02.520Z,101470.06
2023-03-05T15:54:28.995Z,101462.31
2023-03-05T15:56:55.497Z,101463.94
2023-03-05T15:59:22.029Z,101461.63
2023-03-05T16:01:51.427Z,101464.47
2023-03-05T16:04:18.682Z,101453.06
2023-03-05T16:06:47.220Z,101447.91
2023-03-05T16:09:15.349Z,101451.41
2023-03-05T16:11:47.864Z,101448.31
2023-03-05T16:14:17.287Z,101444.91
2023-03-05T16:16:43.868Z,101436.50
2023-03-05T16:19:13.119Z,101434.06
2023-03-05T16:21:40.026Z,101429.19
2023-03-05T16:24:06.599Z,101428.34
2023-03-05T16:26:35.982Z,101425.09
2023-03-05T16:29:02.506Z,101423.75
2023-03-05T16:31:30.419Z,101413.84
2023-03-05T16:33:56.879Z,101417.38
2023-03-05T16:36:26.282Z,101420.22
2023-03-05T16:38:54.715Z,101416.84
2023-03-05T16:41:24.329Z,101404.22
2023-03-05T16:43:56.343Z,101408.69
2023-03-05T16:46:24.821Z,101413.97
2023-03-05T16:48:51.913Z,101407.59
2023-03-05T16:51:22.009Z,101407.59
2023-03-05T16:53:51.921Z,101406.91
2023-03-05T16:56:18.969Z,101408.00
2023-03-05T16:58:45.699Z,101400.56
2023-03-05T17:01:19.258Z,101396.47
2023-03-05T17:03:50.921Z,101390.78
2023-03-05T17:06:23.415Z,101398.66
2023-03-05T17:08:52.813Z,101390.38
2023-03-05T17:11:19.945Z,101392.53
2023-03-05T17:13:49.081Z,101388.47
2023-03-05T17:16:17.915Z,101394.69
2023-03-05T17:18:44.728Z,101389.78
2023-03-05T17:21:12.982Z,101389.38
2023-03-05T17:23:40.084Z,101379.22
2023-03-05T17:26:08.497Z,101381.78
2023-03-05T17:28:35.328Z,101392.09
2023-03-05T17:31:04.483Z,101378.53
2023-03-05T17:33:38.493Z,101380.56
2023-03-05T17:36:06.281Z,101379.88
2023-03-05T17:38:32.711Z,101378.25
2023-03-05T17:40:59.120Z,101377.84
2023-03-05T17:43:25.568Z,101376.34
2023-03-05T17:45:52.996Z,101374.03
2023-03-05T17:48:19.551Z,101368.88
2023-03-05T17:50:46.485Z,101372.69
2023-03-05T17:53:13.033Z,101374.44
2023-03-05T17:55:43.207Z,101373.75
2023-03-05T17:58:09.886Z,101378.09
2023-03-05T18:00:36.879Z,101375.78
2023-03-05T18:03:03.854Z,101369.13
2023-03-05T18:05:30.788Z,101371.94
2023-03-05T18:07:57.322Z,101369.50
2023-03-05T18:10:25.543Z,101359.47
2023-03-05T18:12:53.583Z,101359.19
2023-03-05T18:15:21.408Z,101356.88
2023-03-05T18:17:48.258Z,101357.97
2023-03-05T18:20:28.386Z,101358.09
2023-03-05T18:22:55.595Z,101361.97
2023-03-05T18:25:25.670Z,101364.81
2023-03-05T18:27:53.354Z,101360.88
2023-03-05T18:30:19.960Z,101362.91
2023-03-05T18:32:47.513Z,101358.69
2023-03-05T18:35:16.794Z,101349.34
2023-03-05T18:37:43.479Z,101356.13
2023-03-05T18:40:14.721Z,101351.22
2023-03-05T18:42:41.302Z,101351.34
2023-03-05T18:45:10.365Z,101354.91
2023-03-05T18:47:38.969Z,101348.13
2023-03-05T18:50:06.945Z,101341.47
2023-03-05T18:52:33.478Z,101342.78
2023-03-05T18:54:59.981Z,101345.38
2023-03-05T18:57:26.607Z,101343.84
2023-03-05T18:59:53.058Z,101339.94
2023-03-05T19:02:19.491Z,101337.47
2023-03-05T19:04:46.018Z,101333.53
2023-03-05T19:07:12.513Z,101331.63
2023-03-05T19:10:03.531Z,101321.50
2023-03-05T19:12:35.279Z,101327.69
2023-03-05T19:15:02.612Z,101330.28
2023-03-05T19:17:32.272Z,101321.03
2023-03-05T19:19:59.703Z,101317.66
2023-03-05T19:22:28.456Z,101314.41
2023-03-05T19:24:55.513Z,101316.31
2023-03-05T19:27:21.964Z,101308.84
2023-03-05T19:29:48.753Z,101311.69
2023-03-05T19:32:17.711Z,101308.41
2023-03-05T19:34:47.701Z,101300.69
2023-03-05T19:37:14.479Z,101295.53
2023-03-05T19:39:41.801Z,101292.28
2023-03-05T19:42:08.508Z,101289.97
2023-03-05T19:44:35.067Z,101285.91
2023-03-05T19:47:02.104Z,101286.03
2023-03-05T19:49:28.850Z,101281.28
2023-03-05T19:51:55.622Z,101278.03
2023-03-05T19:54:23.638Z,101278.28
2023-03-05T19:56:52.871Z,101275.84
2023-03-05T19:59:21.173Z,101274.31
2023-03-05T20:01:48.813Z,101276.22
2023-03-05T20:04:20.653Z,101257.41
2023-03-05T20:06:47.776Z,101264.41
2023-03-05T20:09:15.257Z,101261.28
2023-03-05T20:11:42.067Z,101262.22
2023-03-05T20:14:09.260Z,101260.63
2023-03-05T20:16:37.774Z,101256.53
2023-03-05T20:19:06.216Z,101259.22
2023-03-05T20:21:39.621Z,101258.41
2023-03-05T20:24:12.982Z,101264.63
2023-03-05T20:26:40.502Z,101257.28
2023-03-05T20:29:07.925Z,101257.56
2023-03-05T20:31:36.889Z,101249.13
2023-03-05T20:34:06.177Z,101248.34
2023-03-05T20:36:34.579Z,101252.09
2023-03-05T20:39:05.177Z,101256.66
2023-03-05T20:41:33.021Z,101249.91
2023-03-05T20:43:59.465Z,101239.06
2023-03-05T20:46:28.496Z,101247.72
2023-03-05T20:49:01.200Z,101244.44
2023-03-05T20:51:37.773Z,101241.06
2023-03-05T20:54:11.264Z,101240.25
2023-03-05T20:56:37.873Z,101232.00
2023-03-05T20:59:08.474Z,101237.38
2023-03-05T21:01:37.505Z,101227.34
2023-03-05T21:04:04.464Z,101231.66
2023-03-05T21:06:32.324Z,101224.09
2023-03-05T21:08:59.198Z,101219.22
2023-03-05T21:11:26.234Z,101218.38
2023-03-05T21:13:52.660Z,101215.81
2023-03-05T21:16:22.641Z,101218.50
2023-03-05T21:18:51.005Z,101210.13
2023-03-05T21:21:17.712Z,101213.78
2023-03-05T21:23:44.209Z,101201.06
2023-03-05T21:26:10.664Z,101204.44
2023-03-05T21:28:39.272Z,101202.09
2023-03-05T21:31:09.243Z,101199.66
2023-03-05T21:33:35.698Z,101194.78
2023-03-05T21:36:02.118Z,101189.88
2023-03-05T21:38:30.489Z,101189.88
2023-03-05T21:40:58.545Z,101193.41
2023-03-05T21:43:26.835Z,101187.69
2023-03-05T21:45:54.755Z,101183.63
2023-03-05T21:48:22.097Z,101186.44
2023-03-05T21:50:48.915Z,101179.91
2023-03-05T21:53:18.839Z,101175.97
2023-03-05T21:56:07.458Z,101183.22
2023-03-05T21:58:34.801Z,101176.03
2023-03-05T22:01:02.130Z,101178.38
2023-03-05T22:03:29.351Z,101174.41
2023-03-05T22:05:56.391Z,101166.41
2023-03-05T22:08:23.595Z,101167.72
2023-03-05T22:10:50.385Z,101174.13
2023-03-05T22:13:17.871Z,101159.94
2023-03-05T22:15:55.246Z,101164.47
2023-03-05T22:18:25.172Z,101150.97
2023-03-05T22:20:52.597Z,101155.41
2023-03-05T22:23:22.260Z,101149.44
2023-03-05T22:26:03.718Z,101144.31
2023-03-05T22:28:30.810Z,101137.34
2023-03-05T22:30:57.471Z,101135.94
2023-03-05T22:33:24.378Z,101137.00
2023-03-05T22:35:50.978Z,101128.72
2023-03-05T22:38:17.805Z,101120.34
2023-03-05T22:40:46.390Z,101114.75
2023-03-05T22:43:13.616Z,101120.94
2023-03-05T22:45:40.298Z,101112.91
2023-03-05T22:48:07.481Z,101106.53
2023-03-05T22:50:34.006Z,101109.44
2023-03-05T22:53:00.578Z,101112.34
2023-03-05T22:55:27.097Z,101108.41
2023-03-05T22:57:53.527Z,101101.91
2023-03-05T23:00:23.698Z,101103.88
2023-03-05T23:02:51.450Z,101099.91
2023-03-05T23:05:18.723Z,101108.66
2023-03-05T23:07:45.719Z,101102.13
2023-03-05T23:10:16.908Z,101095.88
2023-03-05T23:12:49.066Z,101096.09
2023-03-05T23:15:22.620Z,101096.34
2023-03-05T23:17:49.072Z,101092.47
2023-03-05T23:20:20.257Z,101090.16
2023-03-05T23:22:47.279Z,101076.06
2023-03-05T23:25:14.677Z,101079.22
2023-03-05T23:27:41.927Z,101074.53
2023-03-05T23:30:29.050Z,101071.41
2023-03-05T23:32:56.555Z,101071.75
2023-03-05T23:35:35.684Z,101073.97
2023-03-05T23:38:05.178Z,101065.81
2023-03-05T23:40:35.718Z,101063.25
2023-03-05T23:43:03.238Z,101050.69
2023-03-05T23:45:30.226Z,101061.16
2023-03-05T23:47:57.332Z,101062.78
2023-03-05T23:50:29.792Z,101059.41
2023-03-05T23:52:56.944Z,101053.59
2023-03-05T23:55:33.674Z,101057.22
2023-03-05T23:58:00.619Z,101059.03
